sensor_id;sensor_type;location;lat;lon;timestamp;pressure;altitude;pressure_sealevel;temperature;humidity
59063;BME280;44851;45.648;9.004;2023-02-20T00:00:22;99832.19;;;7.93;67.14
59063;BME280;44851;45.648;9.004;2023-02-20T00:02:48;99831.13;;;7.83;68.12
59063;BME280;44851;45.648;9.004;2023-02-20T00:05:14;99842.03;;;7.88;67.43
59063;BME280;44851;45.648;9.004;2023-02-20T00:07:40;99850.44;;;7.79;67.55
59063;BME280;44851;45.648;9.004;2023-02-20T00:10:06;99842.44;;;7.82;68.13
59063;BME280;44851;45.648;9.004;2023-02-20T00:12:32;99843.38;;;7.81;67.80
59063;BME280;44851;45.648;9.004;2023-02-20T00:14:57;99850.28;;;7.67;67.97
59063;BME280;44851;45.648;9.004;2023-02-20T00:17:23;99858.53;;;7.74;68.10
59063;BME280;44851;45.648;9.004;2023-02-20T00:19:48;99851.94;;;7.68;68.14
59063;BME280;44851;45.648;9.004;2023-02-20T00:22:14;99855.25;;;7.70;67.94
59063;BME280;44851;45.648;9.004;2023-02-20T00:24:40;99861.84;;;7.76;67.83
59063;BME280;44851;45.648;9.004;2023-02-20T00:27:06;99858.69;;;7.71;67.35
59063;BME280;44851;45.648;9.004;2023-02-20T00:29:31;99866.59;;;7.69;68.22
59063;BME280;44851;45.648;9.004;2023-02-20T00:31:57;99874.56;;;7.66;67.96
59063;BME280;44851;45.648;9.004;2023-02-20T00:34:25;99867.38;;;7.57;67.48
59063;BME280;44851;45.648;9.004;2023-02-20T00:36:51;99870.41;;;7.64;68.04
59063;BME280;44851;45.648;9.004;2023-02-20T00:39:16;99871.22;;;7.64;68.00
59063;BME280;44851;45.648;9.004;2023-02-20T00:41:42;99876.06;;;7.56;67.11
59063;BME280;44851;45.648;9.004;2023-02-20T00:44:07;99868.81;;;7.61;67.64
59063;BME280;44851;45.648;9.004;2023-02-20T00:46:33;99873.69;;;7.53;67.55
59063;BME280;44851;45.648;9.004;2023-02-20T00:48:58;99869.66;;;7.62;68.27
59063;BME280;44851;45.648;9.004;2023-02-20T00:51:24;99869.75;;;7.60;67.89
59063;BME280;44851;45.648;9.004;2023-02-20T00:53:49;99864.09;;;7.68;67.29
59063;BME280;44851;45.648;9.004;2023-02-20T00:56:15;99865.53;;;7.72;66.75
59063;BME280;44851;45.648;9.004;2023-02-20T00:58:40;99859.59;;;7.57;67.04
59063;BME280;44851;45.648;9.004;2023-02-20T01:01:06;99859.91;;;7.65;66.45
59063;BME280;44851;45.648;9.004;2023-02-20T01:03:31;99849.13;;;7.71;66.23
59063;BME280;44851;45.648;9.004;2023-02-20T01:05:57;99846.53;;;7.71;65.85
59063;BME280;44851;45.648;9.004;2023-02-20T01:08:23;99854.53;;;7.68;65.85
59063;BME280;44851;45.648;9.004;2023-02-20T01:10:49;99853.22;;;7.48;65.85
59063;BME280;44851;45.648;9.004;2023-02-20T01:13:14;99856.13;;;7.44;66.51
59063;BME280;44851;45.648;9.004;2023-02-20T01:15:40;99858.94;;;7.41;66.90
59063;BME280;44851;45.648;9.004;2023-02-20T01:18:05;99856.66;;;7.49;66.15
59063;BME280;44851;45.648;9.004;2023-02-20T01:20:31;99857.91;;;7.29;65.88
59063;BME280;44851;45.648;9.004;2023-02-20T01:22:57;99857.31;;;7.26;67.57
59063;BME280;44851;45.648;9.004;2023-02-20T01:25:22;99862.38;;;7.27;67.96
59063;BME280;44851;45.648;9.004;2023-02-20T01:27:48;99862.81;;;7.34;66.91
59063;BME280;44851;45.648;9.004;2023-02-20T01:30:13;99862.09;;;7.32;66.09
59063;BME280;44851;45.648;9.004;2023-02-20T01:32:39;99860.88;;;7.37;66.20
59063;BME280;44851;45.648;9.004;2023-02-20T01:35:05;99864.16;;;7.27;66.20
59063;BME280;44851;45.648;9.004;2023-02-20T01:37:30;99874.91;;;7.20;66.36
59063;BME280;44851;45.648;9.004;2023-02-20T01:39:56;99865.53;;;7.18;66.82
59063;BME280;44851;45.648;9.004;2023-02-20T01:42:23;99864.88;;;7.29;65.75
59063;BME280;44851;45.648;9.004;2023-02-20T01:44:49;99870.06;;;7.29;65.38
59063;BME280;44851;45.648;9.004;2023-02-20T01:47:16;99865.97;;;7.25;65.25
59063;BME280;44851;45.648;9.004;2023-02-20T01:49:46;99863.09;;;7.29;65.63
59063;BME280;44851;45.648;9.004;2023-02-20T01:52:18;99866.09;;;7.23;65.89
59063;BME280;44851;45.648;9.004;2023-02-20T01:55:08;99873.25;;;7.19;65.52
59063;BME280;44851;45.648;9.004;2023-02-20T01:57:34;99870.50;;;6.94;67.86
59063;BME280;44851;45.648;9.004;2023-02-20T02:00:21;99877.38;;;6.81;66.93
59063;BME280;44851;45.648;9.004;2023-02-20T02:03:13;99871.63;;;6.90;66.23
59063;BME280;44851;45.648;9.004;2023-02-20T02:05:42;99879.13;;;6.80;67.87
59063;BME280;44851;45.648;9.004;2023-02-20T02:08:10;99881.53;;;6.83;68.56
59063;BME280;44851;45.648;9.004;2023-02-20T02:11:01;99880.13;;;6.92;66.88
59063;BME280;44851;45.648;9.004;2023-02-20T02:13:30;99881.06;;;6.77;68.58
59063;BME280;44851;45.648;9.004;2023-02-20T02:16:26;99883.09;;;6.86;68.04
59063;BME280;44851;45.648;9.004;2023-02-20T02:19:24;99887.38;;;6.73;67.62
59063;BME280;44851;45.648;9.004;2023-02-20T02:33:05;99876.44;;;6.82;67.06
59063;BME280;44851;45.648;9.004;2023-02-20T02:38:30;99880.34;;;6.89;68.43
59063;BME280;44851;45.648;9.004;2023-02-20T02:41:07;99881.25;;;6.88;67.83
59063;BME280;44851;45.648;9.004;2023-02-20T02:43:44;99885.13;;;6.81;68.48
59063;BME280;44851;45.648;9.004;2023-02-20T02:46:37;99886.06;;;6.80;66.78
59063;BME280;44851;45.648;9.004;2023-02-20T02:51:52;99878.84;;;6.85;67.98
59063;BME280;44851;45.648;9.004;2023-02-20T02:54:26;99882.38;;;6.84;67.42
59063;BME280;44851;45.648;9.004;2023-02-20T02:56:53;99887.34;;;6.87;68.10
59063;BME280;44851;45.648;9.004;2023-02-20T02:59:29;99882.25;;;6.71;67.06
59063;BME280;44851;45.648;9.004;2023-02-20T03:02:04;99884.59;;;6.76;68.82
59063;BME280;44851;45.648;9.004;2023-02-20T03:04:32;99882.25;;;6.71;68.25
59063;BME280;44851;45.648;9.004;2023-02-20T03:07:14;99888.47;;;6.68;67.02
59063;BME280;44851;45.648;9.004;2023-02-20T03:09:48;99903.28;;;6.81;67.85
59063;BME280;44851;45.648;9.004;2023-02-20T03:12:17;99896.09;;;6.72;68.74
59063;BME280;44851;45.648;9.004;2023-02-20T03:15:19;99889.22;;;6.85;67.08
59063;BME280;44851;45.648;9.004;2023-02-20T03:18:13;99898.91;;;6.81;67.43
59063;BME280;44851;45.648;9.004;2023-02-20T03:20:45;99894.88;;;6.63;67.28
59063;BME280;44851;45.648;9.004;2023-02-20T03:23:39;99898.38;;;6.62;66.23
59063;BME280;44851;45.648;9.004;2023-02-20T03:26:09;99908.28;;;6.69;67.06
59063;BME280;44851;45.648;9.004;2023-02-20T03:28:52;99905.31;;;6.76;67.35
59063;BME280;44851;45.648;9.004;2023-02-20T03:31:25;99917.53;;;6.74;66.57
59063;BME280;44851;45.648;9.004;2023-02-20T03:34:02;99927.91;;;6.74;67.04
59063;BME280;44851;45.648;9.004;2023-02-20T03:36:56;99922.25;;;6.67;67.61
59063;BME280;44851;45.648;9.004;2023-02-20T03:39:46;99927.69;;;6.77;67.23
59063;BME280;44851;45.648;9.004;2023-02-20T03:42:33;99932.25;;;6.73;67.04
59063;BME280;44851;45.648;9.004;2023-02-20T03:45:19;99929.00;;;6.69;66.92
59063;BME280;44851;45.648;9.004;2023-02-20T03:47:49;99928.06;;;6.56;67.50
59063;BME280;44851;45.648;9.004;2023-02-20T03:50:17;99929.53;;;6.46;68.65
59063;BME280;44851;45.648;9.004;2023-02-20T03:52:43;99933.94;;;6.30;68.88
59063;BME280;44851;45.648;9.004;2023-02-20T03:55:09;99927.97;;;6.58;69.08
59063;BME280;44851;45.648;9.004;2023-02-20T03:57:48;99928.25;;;6.53;68.96
59063;BME280;44851;45.648;9.004;2023-02-20T04:00:18;99942.69;;;6.57;68.83
59063;BME280;44851;45.648;9.004;2023-02-20T04:02:46;99938.06;;;6.62;68.77
59063;BME280;44851;45.648;9.004;2023-02-20T04:05:18;99948.78;;;6.56;68.02
59063;BME280;44851;45.648;9.004;2023-02-20T04:08:01;99950.63;;;6.54;67.94
59063;BME280;44851;45.648;9.004;2023-02-20T04:10:33;99949.91;;;6.52;68.78
59063;BME280;44851;45.648;9.004;2023-02-20T04:13:00;99950.63;;;6.40;68.14
59063;BME280;44851;45.648;9.004;2023-02-20T04:15:28;99952.38;;;6.39;68.63
59063;BME280;44851;45.648;9.004;2023-02-20T04:18:09;99951.44;;;6.40;67.62
59063;BME280;44851;45.648;9.004;2023-02-20T04:20:35;99954.34;;;6.50;68.17
59063;BME280;44851;45.648;9.004;2023-02-20T04:23:06;99961.63;;;6.43;67.56
59063;BME280;44851;45.648;9.004;2023-02-20T04:25:59;99955.97;;;6.37;67.02
59063;BME280;44851;45.648;9.004;2023-02-20T04:28:26;99964.81;;;6.33;68.57
59063;BME280;44851;45.648;9.004;2023-02-20T04:30:52;99966.16;;;6.40;68.51
59063;BME280;44851;45.648;9.004;2023-02-20T04:33:18;99967.63;;;6.44;68.75
59063;BME280;44851;45.648;9.004;2023-02-20T04:35:44;99977.50;;;6.37;68.96
59063;BME280;44851;45.648;9.004;2023-02-20T04:38:09;99992.56;;;6.31;67.96
59063;BME280;44851;45.648;9.004;2023-02-20T04:40:35;99984.94;;;6.13;68.87
59063;BME280;44851;45.648;9.004;2023-02-20T04:43:00;99985.50;;;6.19;69.52
59063;BME280;44851;45.648;9.004;2023-02-20T04:45:26;99991.44;;;6.21;69.13
59063;BME280;44851;45.648;9.004;2023-02-20T04:47:51;99986.97;;;6.23;68.72
59063;BME280;44851;45.648;9.004;2023-02-20T04:50:26;99990.34;;;6.39;68.86
59063;BME280;44851;45.648;9.004;2023-02-20T04:52:52;99997.41;;;6.37;69.56
59063;BME280;44851;45.648;9.004;2023-02-20T04:55:18;99995.91;;;6.33;69.07
59063;BME280;44851;45.648;9.004;2023-02-20T04:57:45;99992.69;;;6.43;69.21
59063;BME280;44851;45.648;9.004;2023-02-20T05:00:12;100004.25;;;6.38;68.88
59063;BME280;44851;45.648;9.004;2023-02-20T05:02:39;100009.06;;;6.44;69.46
59063;BME280;44851;45.648;9.004;2023-02-20T05:05:06;100018.41;;;6.47;69.09
59063;BME280;44851;45.648;9.004;2023-02-20T05:07:39;100019.25;;;6.47;69.37
59063;BME280;44851;45.648;9.004;2023-02-20T05:10:04;100019.25;;;6.47;69.33
59063;BME280;44851;45.648;9.004;2023-02-20T05:12:30;100032.03;;;6.50;70.04
59063;BME280;44851;45.648;9.004;2023-02-20T05:14:55;100029.59;;;6.47;69.20
59063;BME280;44851;45.648;9.004;2023-02-20T05:17:21;100029.94;;;6.71;69.17
59063;BME280;44851;45.648;9.004;2023-02-20T05:19:46;100030.41;;;6.63;68.91
59063;BME280;44851;45.648;9.004;2023-02-20T05:22:12;100031.28;;;6.48;69.30
59063;BME280;44851;45.648;9.004;2023-02-20T05:24:48;100037.06;;;6.67;69.54
59063;BME280;44851;45.648;9.004;2023-02-20T05:27:15;100037.25;;;6.64;68.80
59063;BME280;44851;45.648;9.004;2023-02-20T05:29:45;100038.56;;;6.72;69.19
59063;BME280;44851;45.648;9.004;2023-02-20T05:32:12;100033.34;;;6.57;69.43
59063;BME280;44851;45.648;9.004;2023-02-20T05:34:37;100030.56;;;6.60;69.36
59063;BME280;44851;45.648;9.004;2023-02-20T05:37:03;100034.47;;;6.67;69.52
59063;BME280;44851;45.648;9.004;2023-02-20T05:39:28;100042.25;;;6.67;68.98
59063;BME280;44851;45.648;9.004;2023-02-20T05:41:54;100052.63;;;6.67;68.68
59063;BME280;44851;45.648;9.004;2023-02-20T05:44:19;100042.81;;;6.73;69.11
59063;BME280;44851;45.648;9.004;2023-02-20T05:46:44;100041.69;;;6.77;68.70
59063;BME280;44851;45.648;9.004;2023-02-20T05:49:10;100047.75;;;6.77;69.02
59063;BME280;44851;45.648;9.004;2023-02-20T05:51:36;100050.22;;;6.79;69.50
59063;BME280;44851;45.648;9.004;2023-02-20T05:54:02;100056.56;;;6.89;69.06
59063;BME280;44851;45.648;9.004;2023-02-20T05:56:28;100052.66;;;6.96;69.24
59063;BME280;44851;45.648;9.004;2023-02-20T05:58:54;100060.53;;;6.94;69.25
59063;BME280;44851;45.648;9.004;2023-02-20T06:01:23;100050.97;;;6.81;69.26
59063;BME280;44851;45.648;9.004;2023-02-20T06:03:49;100062.44;;;6.77;68.97
59063;BME280;44851;45.648;9.004;2023-02-20T06:06:15;100068.94;;;6.84;69.58
59063;BME280;44851;45.648;9.004;2023-02-20T06:08:41;100068.28;;;6.80;69.64
59063;BME280;44851;45.648;9.004;2023-02-20T06:11:09;100072.25;;;6.86;69.74
59063;BME280;44851;45.648;9.004;2023-02-20T06:13:35;100081.13;;;6.82;69.81
59063;BME280;44851;45.648;9.004;2023-02-20T06:16:01;100076.53;;;6.87;70.09
59063;BME280;44851;45.648;9.004;2023-02-20T06:18:27;100080.22;;;6.83;69.88
59063;BME280;44851;45.648;9.004;2023-02-20T06:20:52;100090.03;;;6.92;70.01
59063;BME280;44851;45.648;9.004;2023-02-20T06:23:18;100087.81;;;6.86;69.20
59063;BME280;44851;45.648;9.004;2023-02-20T06:25:43;100096.69;;;6.82;69.25
59063;BME280;44851;45.648;9.004;2023-02-20T06:28:08;100105.59;;;6.92;70.16
59063;BME280;44851;45.648;9.004;2023-02-20T06:30:34;100103.94;;;6.91;69.82
59063;BME280;44851;45.648;9.004;2023-02-20T06:32:59;100102.66;;;6.98;70.18
59063;BME280;44851;45.648;9.004;2023-02-20T06:35:25;100112.75;;;7.03;69.69
59063;BME280;44851;45.648;9.004;2023-02-20T06:37:50;100114.34;;;7.05;70.02
59063;BME280;44851;45.648;9.004;2023-02-20T06:40:16;100120.63;;;7.01;69.62
59063;BME280;44851;45.648;9.004;2023-02-20T06:42:41;100124.81;;;7.04;70.09
59063;BME280;44851;45.648;9.004;2023-02-20T06:45:07;100128.59;;;7.12;70.00
59063;BME280;44851;45.648;9.004;2023-02-20T06:47:32;100127.66;;;7.13;70.28
59063;BME280;44851;45.648;9.004;2023-02-20T06:49:58;100136.75;;;7.06;69.35
59063;BME280;44851;45.648;9.004;2023-02-20T06:52:23;100129.31;;;7.00;69.86
59063;BME280;44851;45.648;9.004;2023-02-20T06:54:49;100132.84;;;7.13;70.17
59063;BME280;44851;45.648;9.004;2023-02-20T06:57:18;100137.88;;;7.16;70.17
59063;BME280;44851;45.648;9.004;2023-02-20T06:59:44;100144.91;;;7.14;69.98
59063;BME280;44851;45.648;9.004;2023-02-20T07:02:13;100140.84;;;7.25;70.47
59063;BME280;44851;45.648;9.004;2023-02-20T07:04:38;100146.94;;;7.24;70.23
59063;BME280;44851;45.648;9.004;2023-02-20T07:07:04;100150.38;;;7.24;70.28
59063;BME280;44851;45.648;9.004;2023-02-20T07:09:30;100152.91;;;7.26;70.29
59063;BME280;44851;45.648;9.004;2023-02-20T07:11:55;100150.88;;;7.31;70.59
59063;BME280;44851;45.648;9.004;2023-02-20T07:14:21;100155.22;;;7.30;69.96
59063;BME280;44851;45.648;9.004;2023-02-20T07:16:47;100146.22;;;7.21;69.47
59063;BME280;44851;45.648;9.004;2023-02-20T07:19:12;100148.66;;;7.39;70.05
59063;BME280;44851;45.648;9.004;2023-02-20T07:21:38;100153.28;;;7.34;69.42
59063;BME280;44851;45.648;9.004;2023-02-20T07:24:04;100158.47;;;7.34;69.15
59063;BME280;44851;45.648;9.004;2023-02-20T07:26:30;100155.69;;;7.37;70.20
59063;BME280;44851;45.648;9.004;2023-02-20T07:28:56;100161.72;;;7.37;69.96
59063;BME280;44851;45.648;9.004;2023-02-20T07:31:23;100171.63;;;7.45;69.61
59063;BME280;44851;45.648;9.004;2023-02-20T07:33:48;100171.63;;;7.45;69.58
59063;BME280;44851;45.648;9.004;2023-02-20T07:36:14;100174.16;;;7.46;69.58
59063;BME280;44851;45.648;9.004;2023-02-20T07:38:40;100177.22;;;7.53;69.98
59063;BME280;44851;45.648;9.004;2023-02-20T07:41:05;100178.22;;;7.51;70.23
59063;BME280;44851;45.648;9.004;2023-02-20T07:43:31;100174.50;;;7.55;70.12
59063;BME280;44851;45.648;9.004;2023-02-20T07:45:57;100180.16;;;7.61;70.14
59063;BME280;44851;45.648;9.004;2023-02-20T07:48:22;100178.50;;;7.60;69.57
59063;BME280;44851;45.648;9.004;2023-02-20T07:50:48;100172.09;;;7.66;69.58
59063;BME280;44851;45.648;9.004;2023-02-20T07:53:16;100174.19;;;7.75;69.65
59063;BME280;44851;45.648;9.004;2023-02-20T07:55:42;100174.09;;;7.77;70.26
59063;BME280;44851;45.648;9.004;2023-02-20T07:58:07;100173.91;;;7.80;69.77
59063;BME280;44851;45.648;9.004;2023-02-20T08:00:34;100172.44;;;7.76;70.21
59063;BME280;44851;45.648;9.004;2023-02-20T08:02:59;100165.09;;;7.82;70.55
59063;BME280;44851;45.648;9.004;2023-02-20T08:05:25;100175.03;;;7.90;69.48
59063;BME280;44851;45.648;9.004;2023-02-20T08:07:52;100174.44;;;7.99;69.91
59063;BME280;44851;45.648;9.004;2023-02-20T08:10:21;100170.13;;;7.99;70.41
59063;BME280;44851;45.648;9.004;2023-02-20T08:12:49;100176.97;;;8.01;69.99
59063;BME280;44851;45.648;9.004;2023-02-20T08:15:17;100168.31;;;8.14;69.13
59063;BME280;44851;45.648;9.004;2023-02-20T08:17:42;100172.22;;;8.21;68.15
59063;BME280;44851;45.648;9.004;2023-02-20T08:20:09;100167.09;;;8.20;68.02
59063;BME280;44851;45.648;9.004;2023-02-20T08:22:36;100169.22;;;8.28;68.42
59063;BME280;44851;45.648;9.004;2023-02-20T08:25:01;100165.88;;;8.25;68.49
59063;BME280;44851;45.648;9.004;2023-02-20T08:27:29;100170.91;;;8.29;68.12
59063;BME280;44851;45.648;9.004;2023-02-20T08:29:54;100165.06;;;8.25;67.67
59063;BME280;44851;45.648;9.004;2023-02-20T08:32:20;100163.84;;;8.31;67.17
59063;BME280;44851;45.648;9.004;2023-02-20T08:34:45;100166.50;;;8.43;66.95
59063;BME280;44851;45.648;9.004;2023-02-20T08:37:11;100168.59;;;8.51;66.78
59063;BME280;44851;45.648;9.004;2023-02-20T08:39:36;100162.16;;;8.44;67.20
59063;BME280;44851;45.648;9.004;2023-02-20T08:42:02;100173.81;;;8.51;67.48
59063;BME280;44851;45.648;9.004;2023-02-20T08:44:27;100167.50;;;8.55;68.49
59063;BME280;44851;45.648;9.004;2023-02-20T08:46:53;100169.53;;;8.50;67.67
59063;BME280;44851;45.648;9.004;2023-02-20T08:49:19;100172.50;;;8.58;68.62
59063;BME280;44851;45.648;9.004;2023-02-20T08:51:52;100169.50;;;8.64;67.78
59063;BME280;44851;45.648;9.004;2023-02-20T08:54:18;100171.03;;;8.81;67.74
59063;BME280;44851;45.648;9.004;2023-02-20T08:56:43;100171.31;;;8.76;67.73
59063;BME280;44851;45.648;9.004;2023-02-20T08:59:09;100173.31;;;8.86;68.83
59063;BME280;44851;45.648;9.004;2023-02-20T09:01:35;100174.16;;;8.86;67.76
59063;BME280;44851;45.648;9.004;2023-02-20T09:04:01;100179.25;;;8.88;66.37
59063;BME280;44851;45.648;9.004;2023-02-20T09:06:27;100179.25;;;8.88;66.45
59063;BME280;44851;45.648;9.004;2023-02-20T09:08:53;100186.88;;;9.03;66.51
59063;BME280;44851;45.648;9.004;2023-02-20T09:11:19;100178.66;;;8.97;67.66
59063;BME280;44851;45.648;9.004;2023-02-20T09:13:46;100187.53;;;9.07;65.48
59063;BME280;44851;45.648;9.004;2023-02-20T09:16:14;100179.31;;;9.00;66.24
59063;BME280;44851;45.648;9.004;2023-02-20T09:18:39;100183.03;;;8.96;66.21
59063;BME280;44851;45.648;9.004;2023-02-20T09:21:12;100179.97;;;9.17;65.54
59063;BME280;44851;45.648;9.004;2023-02-20T09:23:38;100181.19;;;9.11;65.29
59063;BME280;44851;45.648;9.004;2023-02-20T09:26:04;100175.59;;;9.17;64.75
59063;BME280;44851;45.648;9.004;2023-02-20T09:28:30;100185.13;;;9.44;63.51
59063;BME280;44851;45.648;9.004;2023-02-20T09:30:56;100181.31;;;9.22;64.48
59063;BME280;44851;45.648;9.004;2023-02-20T09:33:24;100184.78;;;9.36;64.40
59063;BME280;44851;45.648;9.004;2023-02-20T09:35:50;100180.63;;;9.33;64.20
59063;BME280;44851;45.648;9.004;2023-02-20T09:38:16;100177.88;;;9.22;64.41
59063;BME280;44851;45.648;9.004;2023-02-20T09:40:43;100182.28;;;9.34;65.73
59063;BME280;44851;45.648;9.004;2023-02-20T09:43:16;100182.75;;;9.26;64.06
59063;BME280;44851;45.648;9.004;2023-02-20T09:45:55;100186.38;;;9.51;63.02
59063;BME280;44851;45.648;9.004;2023-02-20T09:48:34;100183.53;;;9.41;63.51
59063;BME280;44851;45.648;9.004;2023-02-20T09:51:12;100185.44;;;9.39;63.33
59063;BME280;44851;45.648;9.004;2023-02-20T09:56:31;100173.78;;;9.45;64.15
59063;BME280;44851;45.648;9.004;2023-02-20T09:59:12;100177.19;;;9.58;64.07
59063;BME280;44851;45.648;9.004;2023-02-20T10:01:45;100168.78;;;9.67;63.91
59063;BME280;44851;45.648;9.004;2023-02-20T10:04:22;100165.97;;;9.70;63.77
59063;BME280;44851;45.648;9.004;2023-02-20T10:06:52;100175.72;;;9.79;64.10
59063;BME280;44851;45.648;9.004;2023-02-20T10:09:19;100168.56;;;9.70;63.68
59063;BME280;44851;45.648;9.004;2023-02-20T10:12:12;100167.19;;;9.77;62.57
59063;BME280;44851;45.648;9.004;2023-02-20T10:20:44;100169.78;;;10.76;61.33
59063;BME280;44851;45.648;9.004;2023-02-20T10:23:24;100167.59;;;10.94;61.20
59063;BME280;44851;45.648;9.004;2023-02-20T10:25:58;100163.94;;;10.73;59.89
59063;BME280;44851;45.648;9.004;2023-02-20T10:28:24;100165.19;;;10.67;60.80
59063;BME280;44851;45.648;9.004;2023-02-20T10:36:15;100157.06;;;10.72;59.24
59063;BME280;44851;45.648;9.004;2023-02-20T10:38:57;100159.22;;;10.78;60.70
59063;BME280;44851;45.648;9.004;2023-02-20T10:41:37;100161.16;;;10.87;59.81
59063;BME280;44851;45.648;9.004;2023-02-20T10:47:06;100159.16;;;11.37;59.06
59063;BME280;44851;45.648;9.004;2023-02-20T10:49:42;100147.22;;;11.46;58.87
59063;BME280;44851;45.648;9.004;2023-02-20T10:52:13;100140.34;;;11.78;59.35
59063;BME280;44851;45.648;9.004;2023-02-20T10:54:44;100144.34;;;11.82;56.76
59063;BME280;44851;45.648;9.004;2023-02-20T11:02:44;100127.94;;;12.68;57.23
59063;BME280;44851;45.648;9.004;2023-02-20T11:05:16;100131.56;;;12.77;54.74
59063;BME280;44851;45.648;9.004;2023-02-20T11:07:42;100127.34;;;12.65;56.49
59063;BME280;44851;45.648;9.004;2023-02-20T11:10:08;100121.44;;;12.63;55.33
59063;BME280;44851;45.648;9.004;2023-02-20T11:12:43;100116.88;;;12.65;55.06
59063;BME280;44851;45.648;9.004;2023-02-20T11:15:14;100118.50;;;12.77;56.01
59063;BME280;44851;45.648;9.004;2023-02-20T11:17:40;100116.84;;;12.97;55.55
59063;BME280;44851;45.648;9.004;2023-02-20T11:22:54;100115.34;;;13.15;55.69
59063;BME280;44851;45.648;9.004;2023-02-20T11:25:32;100103.28;;;13.24;52.88
59063;BME280;44851;45.648;9.004;2023-02-20T11:30:44;100101.50;;;13.55;54.39
59063;BME280;44851;45.648;9.004;2023-02-20T11:33:21;100088.56;;;13.54;51.19
59063;BME280;44851;45.648;9.004;2023-02-20T11:35:55;100089.34;;;13.44;52.17
59063;BME280;44851;45.648;9.004;2023-02-20T11:41:00;100080.97;;;13.09;52.18
59063;BME280;44851;45.648;9.004;2023-02-20T11:51:49;100048.06;;;13.77;51.98
59063;BME280;44851;45.648;9.004;2023-02-20T11:54:19;100051.56;;;13.87;51.90
59063;BME280;44851;45.648;9.004;2023-02-20T11:59:42;100037.06;;;13.93;51.56
59063;BME280;44851;45.648;9.004;2023-02-20T12:05:00;100029.53;;;13.50;51.35
59063;BME280;44851;45.648;9.004;2023-02-20T12:09:58;100021.84;;;13.67;54.62
59063;BME280;44851;45.648;9.004;2023-02-20T12:12:29;100017.44;;;13.68;53.30
59063;BME280;44851;45.648;9.004;2023-02-20T12:14:56;100013.28;;;13.25;52.37
59063;BME280;44851;45.648;9.004;2023-02-20T12:18:09;100013.47;;;13.33;53.34
59063;BME280;44851;45.648;9.004;2023-02-20T12:20:25;100005.75;;;13.32;52.59
59063;BME280;44851;45.648;9.004;2023-02-20T12:25:51;100006.50;;;13.13;52.33
59063;BME280;44851;45.648;9.004;2023-02-20T12:31:26;99995.66;;;12.96;53.58
59063;BME280;44851;45.648;9.004;2023-02-20T12:42:11;99978.59;;;13.02;53.94
59063;BME280;44851;45.648;9.004;2023-02-20T12:44:50;99961.03;;;13.14;54.60
59063;BME280;44851;45.648;9.004;2023-02-20T12:47:35;99951.31;;;12.95;52.11
59063;BME280;44851;45.648;9.004;2023-02-20T13:03:15;99921.84;;;13.03;53.24
59063;BME280;44851;45.648;9.004;2023-02-20T13:05:44;99922.38;;;13.37;54.02
59063;BME280;44851;45.648;9.004;2023-02-20T13:08:14;99911.38;;;13.53;51.79
59063;BME280;44851;45.648;9.004;2023-02-20T13:13:14;99909.75;;;14.10;52.27
59063;BME280;44851;45.648;9.004;2023-02-20T13:20:56;99897.03;;;14.44;50.68
59063;BME280;44851;45.648;9.004;2023-02-20T13:25:49;99891.56;;;14.65;50.99
59063;BME280;44851;45.648;9.004;2023-02-20T13:33:33;99876.56;;;14.85;49.21
59063;BME280;44851;45.648;9.004;2023-02-20T13:36:00;99873.63;;;14.97;49.29
59063;BME280;44851;45.648;9.004;2023-02-20T13:38:27;99871.28;;;14.94;48.48
59063;BME280;44851;45.648;9.004;2023-02-20T13:45:47;99864.84;;;15.07;47.94
59063;BME280;44851;45.648;9.004;2023-02-20T13:48:41;99857.50;;;15.10;47.18
59063;BME280;44851;45.648;9.004;2023-02-20T13:54:20;99851.13;;;15.13;47.54
59063;BME280;44851;45.648;9.004;2023-02-20T13:56:52;99842.72;;;15.09;49.49
59063;BME280;44851;45.648;9.004;2023-02-20T13:59:20;99845.25;;;15.01;46.90
59063;BME280;44851;45.648;9.004;2023-02-20T14:04:27;99834.53;;;14.94;50.24
59063;BME280;44851;45.648;9.004;2023-02-20T14:06:54;99835.56;;;15.01;47.81
59063;BME280;44851;45.648;9.004;2023-02-20T14:09:26;99838.06;;;15.03;47.44
59063;BME280;44851;45.648;9.004;2023-02-20T14:12:03;99836.72;;;14.99;47.24
59063;BME280;44851;45.648;9.004;2023-02-20T14:14:56;99831.78;;;14.86;47.51
59063;BME280;44851;45.648;9.004;2023-02-20T14:17:23;99831.75;;;14.96;48.71
59063;BME280;44851;45.648;9.004;2023-02-20T14:19:57;99833.06;;;14.82;47.49
59063;BME280;44851;45.648;9.004;2023-02-20T14:25:23;99826.84;;;14.56;47.78
59063;BME280;44851;45.648;9.004;2023-02-20T14:27:49;99825.31;;;14.53;47.97
59063;BME280;44851;45.648;9.004;2023-02-20T14:30:22;99823.44;;;14.45;48.54
59063;BME280;44851;45.648;9.004;2023-02-20T14:32:54;99821.63;;;14.46;48.85
59063;BME280;44851;45.648;9.004;2023-02-20T14:40:53;99815.38;;;14.10;49.21
59063;BME280;44851;45.648;9.004;2023-02-20T14:43:24;99816.75;;;14.14;49.55
59063;BME280;44851;45.648;9.004;2023-02-20T14:46:04;99816.34;;;14.09;49.15
59063;BME280;44851;45.648;9.004;2023-02-20T14:48:34;99811.06;;;14.18;49.99
59063;BME280;44851;45.648;9.004;2023-02-20T14:53:34;99799.78;;;14.08;50.00
59063;BME280;44851;45.648;9.004;2023-02-20T14:56:17;99809.97;;;14.21;49.19
59063;BME280;44851;45.648;9.004;2023-02-20T14:58:46;99808.88;;;14.14;49.30
59063;BME280;44851;45.648;9.004;2023-02-20T15:01:15;99803.50;;;14.25;49.76
59063;BME280;44851;45.648;9.004;2023-02-20T15:03:42;99803.88;;;14.30;50.31
59063;BME280;44851;45.648;9.004;2023-02-20T15:06:13;99799.75;;;14.18;49.48
59063;BME280;44851;45.648;9.004;2023-02-20T15:08:39;99805.28;;;14.15;49.99
59063;BME280;44851;45.648;9.004;2023-02-20T15:11:12;99804.19;;;14.17;49.43
59063;BME280;44851;45.648;9.004;2023-02-20T15:13:42;99803.66;;;14.04;49.83
59063;BME280;44851;45.648;9.004;2023-02-20T15:16:24;99794.53;;;14.08;49.46
59063;BME280;44851;45.648;9.004;2023-02-20T15:18:50;99809.72;;;14.05;50.80
59063;BME280;44851;45.648;9.004;2023-02-20T15:21:40;99805.47;;;13.84;50.20
59063;BME280;44851;45.648;9.004;2023-02-20T15:26:49;99799.00;;;13.88;51.06